This is the latest recevied weather packets stored in our database for station/object KL1SF-7. If no packets are shown the sender has not sent any weather packets the latest 10 day(s).
| Time | Temp. | Humidity | Pressure | Rain* | Wind** | Luminosity | Snow |
|---|---|---|---|---|---|---|---|
| 1778016208 | 13.33° C | 26% | 1011.1 hPa | 0 mm | - | - | - |
| 1778015601 | 13.33° C | 26% | 1011.1 hPa | 0 mm | - | - | - |
| 1778015017 | 12.78° C | 26% | 1011.2 hPa | 0 mm | - | - | - |
| 1778014418 | 12.78° C | 26% | 1011.8 hPa | 0 mm | - | - | - |
| 1778013808 | 13.33° C | 26% | 1011.8 hPa | 0 mm | - | - | - |
| 1778013221 | 13.89° C | 24% | 1011.1 hPa | 0 mm | - | - | - |
| 1778012604 | 12.78° C | 26% | 1011.9 hPa | 0 mm | - | - | - |
| 1778012014 | 13.33° C | 26% | 1011.9 hPa | 0 mm | - | - | - |
| 1778011410 | 13.33° C | 26% | 1011.5 hPa | 0 mm | - | - | - |
| 1778010812 | 13.33° C | 25% | 1011.7 hPa | 0 mm | - | - | - |
| 1778010201 | 13.33° C | 26% | 1011.7 hPa | 0 mm | - | - | - |
| 1778009617 | 12.22° C | 27% | 1012.4 hPa | 0 mm | - | - | - |
| 1778009018 | 12.22° C | 28% | 1012.6 hPa | 0 mm | - | - | - |
| 1778008407 | 12.22° C | 28% | 1012.6 hPa | 0 mm | - | - | - |
| 1778007824 | 12.22° C | 28% | 1012 hPa | 0 mm | - | - | - |
| 1778007204 | 12.22° C | 30% | 1012.2 hPa | 0 mm | - | - | - |
| 1778006617 | 12.22° C | 30% | 1012.2 hPa | 0 mm | - | - | - |
| 1778006010 | 11.67° C | 30% | 1012.8 hPa | 0 mm | - | - | - |
| 1778005411 | 11.67° C | 30% | 1012 hPa | 0 mm | - | - | - |
| 1778004821 | 11.67° C | 31% | 1012 hPa | 0 mm | - | - | - |
| 1778004217 | 11.11° C | 29% | 1012.8 hPa | 0 mm | - | - | - |
| 1778003619 | 10.56° C | 32% | 1012.4 hPa | 0 mm | - | - | - |
| 1778003009 | 11.11° C | 30% | 1012.4 hPa | 0 mm | - | - | - |
| 1778002421 | 11.11° C | 34% | 1012.2 hPa | 0 mm | - | - | - |
| 1778001803 | 10° C | 36% | 1012.2 hPa | 0 mm | - | - | - |
* Rain since midnight (hover to see other rain measurements)
** Current wind speed in m/s (hover to see current wind gust speed)